createdAt,value
2023-05-09T00:03:53.672Z,98.0
2023-05-09T00:08:59.830Z,98.0
2023-05-09T00:14:06.035Z,98.0
2023-05-09T00:19:12.240Z,98.0
2023-05-09T00:24:18.468Z,98.0
2023-05-09T00:29:24.668Z,98.0
2023-05-09T00:34:30.868Z,98.0
2023-05-09T00:39:37.084Z,98.5
2023-05-09T00:44:43.290Z,98.5
2023-05-09T00:49:49.496Z,98.5
2023-05-09T00:54:55.752Z,98.5
2023-05-09T01:00:01.912Z,98.5
2023-05-09T01:05:07.144Z,98.5
2023-05-09T01:10:13.412Z,98.5
2023-05-09T01:15:19.592Z,98.5
2023-05-09T01:20:25.782Z,98.5
2023-05-09T01:25:31.980Z,98.5
2023-05-09T01:30:38.192Z,98.5
2023-05-09T01:35:44.429Z,98.5
2023-05-09T01:40:50.612Z,98.5
2023-05-09T01:45:56.820Z,98.5
2023-05-09T01:51:03.024Z,98.5
2023-05-09T02:01:15.546Z,98.5
2023-05-09T02:06:21.654Z,98.5
2023-05-09T02:11:27.900Z,98.5
2023-05-09T02:16:34.107Z,98.5
2023-05-09T02:21:40.295Z,98.5
2023-05-09T02:26:46.499Z,98.5
2023-05-09T02:31:52.725Z,98.5
2023-05-09T02:36:57.930Z,98.5
2023-05-09T02:42:04.129Z,98.5
2023-05-09T02:47:10.343Z,98.5
2023-05-09T02:52:15.569Z,98.5
2023-05-09T02:57:21.780Z,98.5
2023-05-09T03:02:28.086Z,98.5
2023-05-09T03:07:34.193Z,98.5
2023-05-09T03:12:40.461Z,98.5
2023-05-09T03:17:46.705Z,98.5
2023-05-09T03:22:52.813Z,98.5
2023-05-09T03:27:59.027Z,98.5
2023-05-09T03:33:05.270Z,98.5
2023-05-09T03:38:11.452Z,98.5
2023-05-09T03:43:17.659Z,98.5
2023-05-09T03:48:23.861Z,98.5
2023-05-09T03:53:30.087Z,98.5
2023-05-09T03:58:36.284Z,98.5
2023-05-09T04:03:42.597Z,98.5
2023-05-09T04:08:48.698Z,98.5
2023-05-09T04:13:54.908Z,98.5
2023-05-09T04:19:01.122Z,98.5
2023-05-09T04:24:07.331Z,98.5
2023-05-09T04:29:13.548Z,98.5
2023-05-09T04:34:19.744Z,98.5
2023-05-09T04:39:25.957Z,98.5
2023-05-09T04:44:32.156Z,98.5
2023-05-09T04:49:38.363Z,98.5
2023-05-09T04:54:44.575Z,98.5
2023-05-09T04:59:50.795Z,98.5
2023-05-09T05:05:10.051Z,98.5
2023-05-09T05:10:03.209Z,98.5
2023-05-09T05:15:09.413Z,98.5
2023-05-09T05:20:15.623Z,98.5
2023-05-09T05:25:21.828Z,98.5
2023-05-09T05:30:28.079Z,98.5
2023-05-09T05:35:34.239Z,98.5
2023-05-09T05:40:40.439Z,98.5
2023-05-09T05:45:46.675Z,98.5
2023-05-09T05:50:53.192Z,98.5
2023-05-09T05:55:59.068Z,98.5
2023-05-09T06:01:05.337Z,98.5
2023-05-09T06:06:11.481Z,98.5
2023-05-09T06:11:17.688Z,98.5
2023-05-09T06:16:23.955Z,98.5
2023-05-09T06:21:30.107Z,98.5
2023-05-09T06:26:36.323Z,98.5
2023-05-09T06:31:42.550Z,98.5
2023-05-09T06:36:48.751Z,98.5
2023-05-09T06:41:54.954Z,98.5
2023-05-09T06:47:01.148Z,98.5
2023-05-09T06:52:07.414Z,98.5
2023-05-09T06:57:13.566Z,98.5
2023-05-09T07:02:19.801Z,98.5
2023-05-09T07:07:26.034Z,98.0
2023-05-09T07:12:32.192Z,97.5
2023-05-09T07:17:38.423Z,97.5
2023-05-09T07:22:44.681Z,97.0
2023-05-09T07:27:50.822Z,97.0
2023-05-09T07:32:57.092Z,97.0
2023-05-09T07:38:03.242Z,96.5
2023-05-09T07:43:09.473Z,96.5
2023-05-09T07:48:15.652Z,96.5
2023-05-09T07:53:21.872Z,96.5
2023-05-09T07:58:28.081Z,96.0
2023-05-09T08:03:34.389Z,96.0
2023-05-09T08:08:40.509Z,96.0
2023-05-09T08:13:46.707Z,95.5
2023-05-09T08:18:52.913Z,95.5
2023-05-09T08:23:58.130Z,95.0
2023-05-09T08:29:04.350Z,95.0
2023-05-09T08:34:10.564Z,94.5
2023-05-09T08:39:16.752Z,94.5
2023-05-09T08:44:22.961Z,94.0
2023-05-09T08:49:29.189Z,94.0
2023-05-09T08:54:35.381Z,94.0
2023-05-09T08:59:41.588Z,94.5
2023-05-09T09:04:47.814Z,94.5
2023-05-09T09:09:54.019Z,94.0
2023-05-09T09:15:00.235Z,94.0
2023-05-09T09:20:06.462Z,93.5
2023-05-09T09:25:12.637Z,93.5
2023-05-09T09:30:18.839Z,93.0
2023-05-09T09:35:25.056Z,92.5
2023-05-09T09:40:31.254Z,92.5
2023-05-09T09:45:37.517Z,92.5
2023-05-09T09:50:43.680Z,92.0
2023-05-09T09:55:49.887Z,91.5
2023-05-09T10:00:56.109Z,91.5
2023-05-09T10:06:02.309Z,91.0
2023-05-09T10:11:08.517Z,91.0
2023-05-09T10:16:14.765Z,91.5
2023-05-09T10:21:20.927Z,91.5
2023-05-09T10:26:27.178Z,91.5
2023-05-09T10:31:33.444Z,92.0
2023-05-09T10:36:39.563Z,92.0
2023-05-09T10:41:45.760Z,92.5
2023-05-09T10:46:52.033Z,92.5
2023-05-09T10:51:58.184Z,93.0
2023-05-09T10:57:04.415Z,93.0
2023-05-09T11:02:10.600Z,93.0
2023-05-09T11:07:16.816Z,93.5
2023-05-09T11:12:23.009Z,93.5
2023-05-09T11:17:29.245Z,94.0
2023-05-09T11:22:35.440Z,94.0
2023-05-09T11:27:41.628Z,94.5
2023-05-09T11:32:47.921Z,94.5
2023-05-09T11:37:54.068Z,95.0
2023-05-09T11:43:00.272Z,95.5
2023-05-09T11:48:06.505Z,95.5
2023-05-09T11:53:12.686Z,95.5
2023-05-09T11:58:18.889Z,95.5
2023-05-09T12:03:25.310Z,95.5
2023-05-09T12:08:31.334Z,95.5
2023-05-09T12:13:37.518Z,96.0
2023-05-09T12:18:43.742Z,96.0
2023-05-09T12:23:51.745Z,96.0
2023-05-09T12:28:56.134Z,96.0
2023-05-09T12:34:02.345Z,96.0
2023-05-09T12:39:08.553Z,96.0
2023-05-09T12:44:14.766Z,96.0
2023-05-09T12:49:20.985Z,96.0
2023-05-09T12:54:27.192Z,96.5
2023-05-09T12:59:33.404Z,96.5
2023-05-09T13:04:39.715Z,96.5
2023-05-09T13:09:45.812Z,96.5
2023-05-09T13:14:52.024Z,96.5
2023-05-09T13:19:58.213Z,96.5
2023-05-09T13:25:04.435Z,96.0
2023-05-09T13:30:10.639Z,96.0
2023-05-09T13:35:16.854Z,96.5
2023-05-09T13:40:23.060Z,96.5
2023-05-09T13:45:29.285Z,96.5
2023-05-09T13:50:35.466Z,96.5
2023-05-09T13:55:40.688Z,96.5
2023-05-09T14:00:46.897Z,96.5
2023-05-09T14:05:53.110Z,97.0
2023-05-09T14:10:59.323Z,97.0
2023-05-09T14:16:05.564Z,97.0
2023-05-09T14:21:11.767Z,97.0
2023-05-09T14:26:17.938Z,97.0
2023-05-09T14:31:24.203Z,97.0
2023-05-09T14:36:30.357Z,97.5
2023-05-09T14:41:36.570Z,97.5
2023-05-09T14:46:42.823Z,97.5
2023-05-09T14:51:48.984Z,97.0
2023-05-09T14:56:55.197Z,97.5
2023-05-09T15:02:01.484Z,97.0
2023-05-09T15:07:07.629Z,97.0
2023-05-09T15:12:13.815Z,97.0
2023-05-09T15:17:20.022Z,97.0
2023-05-09T15:22:26.238Z,97.0
2023-05-09T15:27:32.521Z,97.0
2023-05-09T15:32:39.683Z,97.0
2023-05-09T15:37:44.865Z,97.0
2023-05-09T15:42:51.080Z,97.5
2023-05-09T15:47:57.322Z,97.5
2023-05-09T15:53:03.509Z,97.5
2023-05-09T15:58:09.700Z,97.5
2023-05-09T16:03:16.036Z,97.5
2023-05-09T16:08:22.115Z,97.5
2023-05-09T16:13:28.395Z,97.5
2023-05-09T16:18:34.532Z,97.5
2023-05-09T16:23:40.733Z,97.5
2023-05-09T16:28:46.945Z,98.0
2023-05-09T16:33:53.152Z,98.0
2023-05-09T16:38:59.353Z,97.5
2023-05-09T16:44:05.569Z,97.5
2023-05-09T16:49:11.890Z,97.5
2023-05-09T16:54:17.982Z,97.5
2023-05-09T16:59:24.193Z,98.0
2023-05-09T17:04:30.468Z,98.0
2023-05-09T17:09:36.621Z,98.0
2023-05-09T17:14:42.823Z,98.0
2023-05-09T17:19:49.027Z,98.0
2023-05-09T17:24:55.237Z,98.0
2023-05-09T17:30:01.443Z,98.0
2023-05-09T17:35:07.662Z,98.0
2023-05-09T17:40:14.277Z,98.0
2023-05-09T17:45:20.071Z,98.0
2023-05-09T17:50:26.281Z,98.0
2023-05-09T17:55:32.483Z,98.0
2023-05-09T18:00:38.696Z,98.0
2023-05-09T18:05:44.900Z,98.0
2023-05-09T18:10:51.108Z,98.0
2023-05-09T18:15:57.372Z,98.0
2023-05-09T18:21:03.531Z,98.5
2023-05-09T18:26:09.725Z,98.5
2023-05-09T18:31:15.988Z,98.5
2023-05-09T18:36:22.149Z,98.5
2023-05-09T18:41:28.362Z,98.5
2023-05-09T18:46:34.611Z,98.5
2023-05-09T18:51:40.781Z,98.5
2023-05-09T19:01:53.186Z,98.5
2023-05-09T19:06:59.422Z,98.5
2023-05-09T19:12:05.601Z,98.5
2023-05-09T19:17:11.821Z,98.5
2023-05-09T19:22:18.028Z,98.5
2023-05-09T19:32:29.544Z,98.5
2023-05-09T19:37:35.667Z,98.5
2023-05-09T19:42:40.888Z,98.5
2023-05-09T19:47:47.126Z,98.5
2023-05-09T19:52:53.317Z,98.5
2023-05-09T19:57:59.527Z,98.5
2023-05-09T20:03:05.827Z,98.5
2023-05-09T20:08:12.011Z,98.5
2023-05-09T20:13:18.179Z,98.5
2023-05-09T20:18:24.411Z,98.5
2023-05-09T20:23:30.600Z,98.5
2023-05-09T20:28:36.764Z,98.5
2023-05-09T20:33:42.969Z,98.5
2023-05-09T20:38:49.183Z,98.5
2023-05-09T20:43:55.390Z,98.5
2023-05-09T20:49:01.594Z,98.5
2023-05-09T20:54:07.818Z,98.5
2023-05-09T20:59:14.018Z,98.5
2023-05-09T21:04:20.241Z,98.5
2023-05-09T21:09:26.439Z,98.5
2023-05-09T21:14:32.642Z,98.5
2023-05-09T21:19:38.848Z,98.5
2023-05-09T21:24:45.060Z,98.5
2023-05-09T21:29:51.263Z,98.5
2023-05-09T21:34:57.468Z,98.5
2023-05-09T21:40:05.491Z,98.5
2023-05-09T21:45:09.887Z,98.5
2023-05-09T21:50:16.342Z,98.5
2023-05-09T22:00:28.505Z,98.5
2023-05-09T22:05:34.720Z,98.5
2023-05-09T22:10:40.934Z,98.5
2023-05-09T22:15:47.144Z,98.5
2023-05-09T22:20:53.357Z,98.5
2023-05-09T22:25:59.555Z,98.5
2023-05-09T22:31:05.766Z,98.5
2023-05-09T22:36:11.962Z,98.5
2023-05-09T22:41:18.180Z,98.5
2023-05-09T22:46:24.457Z,98.5
2023-05-09T22:51:30.585Z,98.5
2023-05-09T22:56:36.799Z,98.5
2023-05-09T23:01:43.066Z,98.5
2023-05-09T23:06:49.304Z,98.5
2023-05-09T23:11:55.452Z,98.5
2023-05-09T23:17:01.650Z,98.5
2023-05-09T23:22:07.836Z,98.5
2023-05-09T23:27:14.064Z,98.5
2023-05-09T23:32:20.265Z,98.5
2023-05-09T23:37:26.470Z,98.5
2023-05-09T23:42:33.041Z,98.5
2023-05-09T23:47:38.916Z,98.5
2023-05-09T23:52:45.111Z,98.5
2023-05-09T23:57:51.317Z,98.5
